sensor_id;sensor_type;location;lat;lon;timestamp;P1;P2;P0
64631;PMS5003;58358;50.936;0.246;2023-04-24T00:00:40;39;38;
64631;PMS5003;58358;50.936;0.246;2023-04-24T00:03:06;43;43;
64631;PMS5003;58358;50.936;0.246;2023-04-24T00:05:31;39;38;
64631;PMS5003;58358;50.936;0.246;2023-04-24T00:07:56;41;39;
64631;PMS5003;58358;50.936;0.246;2023-04-24T00:10:22;45;43;
64631;PMS5003;58358;50.936;0.246;2023-04-24T00:12:47;47;42;
64631;PMS5003;58358;50.936;0.246;2023-04-24T00:15:13;48;42;
64631;PMS5003;58358;50.936;0.246;2023-04-24T00:17:39;49;42;
64631;PMS5003;58358;50.936;0.246;2023-04-24T00:20:05;46;41;
64631;PMS5003;58358;50.936;0.246;2023-04-24T00:22:30;43;40;
64631;PMS5003;58358;50.936;0.246;2023-04-24T00:24:55;49;42;
64631;PMS5003;58358;50.936;0.246;2023-04-24T00:27:21;49;45;
64631;PMS5003;58358;50.936;0.246;2023-04-24T00:29:46;51;45;
64631;PMS5003;58358;50.936;0.246;2023-04-24T00:32:12;55;50;
64631;PMS5003;58358;50.936;0.246;2023-04-24T00:34:38;54;47;
64631;PMS5003;58358;50.936;0.246;2023-04-24T00:37:03;49;45;
64631;PMS5003;58358;50.936;0.246;2023-04-24T00:39:29;51;45;
64631;PMS5003;58358;50.936;0.246;2023-04-24T00:41:55;56;50;
64631;PMS5003;58358;50.936;0.246;2023-04-24T00:44:20;58;48;
64631;PMS5003;58358;50.936;0.246;2023-04-24T00:46:51;52;51;
64631;PMS5003;58358;50.936;0.246;2023-04-24T00:49:12;59;51;
64631;PMS5003;58358;50.936;0.246;2023-04-24T00:51:37;57;55;
64631;PMS5003;58358;50.936;0.246;2023-04-24T00:54:03;48;44;
64631;PMS5003;58358;50.936;0.246;2023-04-24T00:56:29;58;54;
64631;PMS5003;58358;50.936;0.246;2023-04-24T00:58:54;50;48;
64631;PMS5003;58358;50.936;0.246;2023-04-24T01:01:20;53;49;
64631;PMS5003;58358;50.936;0.246;2023-04-24T01:03:46;54;53;
64631;PMS5003;58358;50.936;0.246;2023-04-24T01:06:11;55;52;
64631;PMS5003;58358;50.936;0.246;2023-04-24T01:08:37;55;51;
64631;PMS5003;58358;50.936;0.246;2023-04-24T01:11:03;53;48;
64631;PMS5003;58358;50.936;0.246;2023-04-24T01:13:28;58;47;
64631;PMS5003;58358;50.936;0.246;2023-04-24T01:15:53;55;53;
64631;PMS5003;58358;50.936;0.246;2023-04-24T01:18:19;47;43;
64631;PMS5003;58358;50.936;0.246;2023-04-24T01:20:44;51;51;
64631;PMS5003;58358;50.936;0.246;2023-04-24T01:23:10;56;50;
64631;PMS5003;58358;50.936;0.246;2023-04-24T01:25:35;56;53;
64631;PMS5003;58358;50.936;0.246;2023-04-24T01:28:01;51;48;
64631;PMS5003;58358;50.936;0.246;2023-04-24T01:30:27;52;49;
64631;PMS5003;58358;50.936;0.246;2023-04-24T01:32:52;56;49;
64631;PMS5003;58358;50.936;0.246;2023-04-24T01:35:18;50;46;
64631;PMS5003;58358;50.936;0.246;2023-04-24T01:37:43;54;48;
64631;PMS5003;58358;50.936;0.246;2023-04-24T01:40:09;61;58;
64631;PMS5003;58358;50.936;0.246;2023-04-24T01:42:35;54;46;
64631;PMS5003;58358;50.936;0.246;2023-04-24T01:45:00;50;46;
64631;PMS5003;58358;50.936;0.246;2023-04-24T01:47:25;56;56;
64631;PMS5003;58358;50.936;0.246;2023-04-24T01:49:51;59;53;
64631;PMS5003;58358;50.936;0.246;2023-04-24T01:52:17;52;49;
64631;PMS5003;58358;50.936;0.246;2023-04-24T01:54:42;55;53;
64631;PMS5003;58358;50.936;0.246;2023-04-24T01:57:07;49;44;
64631;PMS5003;58358;50.936;0.246;2023-04-24T01:59:33;52;48;
64631;PMS5003;58358;50.936;0.246;2023-04-24T02:01:58;48;43;
64631;PMS5003;58358;50.936;0.246;2023-04-24T02:04:24;51;48;
64631;PMS5003;58358;50.936;0.246;2023-04-24T02:06:49;48;45;
64631;PMS5003;58358;50.936;0.246;2023-04-24T02:09:15;53;49;
64631;PMS5003;58358;50.936;0.246;2023-04-24T02:11:40;60;50;
64631;PMS5003;58358;50.936;0.246;2023-04-24T02:14:06;48;44;
64631;PMS5003;58358;50.936;0.246;2023-04-24T02:16:31;48;45;
64631;PMS5003;58358;50.936;0.246;2023-04-24T02:18:57;47;46;
64631;PMS5003;58358;50.936;0.246;2023-04-24T02:21:22;51;43;
64631;PMS5003;58358;50.936;0.246;2023-04-24T02:23:47;53;43;
64631;PMS5003;58358;50.936;0.246;2023-04-24T02:26:13;50;46;
64631;PMS5003;58358;50.936;0.246;2023-04-24T02:28:38;52;45;
64631;PMS5003;58358;50.936;0.246;2023-04-24T02:31:04;50;47;
64631;PMS5003;58358;50.936;0.246;2023-04-24T02:33:29;47;42;
64631;PMS5003;58358;50.936;0.246;2023-04-24T02:35:55;49;49;
64631;PMS5003;58358;50.936;0.246;2023-04-24T02:38:20;55;47;
64631;PMS5003;58358;50.936;0.246;2023-04-24T02:40:46;45;41;
64631;PMS5003;58358;50.936;0.246;2023-04-24T02:43:11;40;40;
64631;PMS5003;58358;50.936;0.246;2023-04-24T02:45:37;45;42;
64631;PMS5003;58358;50.936;0.246;2023-04-24T02:48:02;49;46;
64631;PMS5003;58358;50.936;0.246;2023-04-24T02:50:27;50;47;
64631;PMS5003;58358;50.936;0.246;2023-04-24T02:52:53;51;45;
64631;PMS5003;58358;50.936;0.246;2023-04-24T02:55:19;49;47;
64631;PMS5003;58358;50.936;0.246;2023-04-24T02:57:44;56;50;
64631;PMS5003;58358;50.936;0.246;2023-04-24T03:00:10;44;42;
64631;PMS5003;58358;50.936;0.246;2023-04-24T03:02:35;45;42;
64631;PMS5003;58358;50.936;0.246;2023-04-24T03:05:01;45;43;
64631;PMS5003;58358;50.936;0.246;2023-04-24T03:07:26;54;47;
64631;PMS5003;58358;50.936;0.246;2023-04-24T03:09:51;46;40;
64631;PMS5003;58358;50.936;0.246;2023-04-24T03:12:17;46;42;
64631;PMS5003;58358;50.936;0.246;2023-04-24T03:14:42;47;40;
64631;PMS5003;58358;50.936;0.246;2023-04-24T03:17:08;43;42;
64631;PMS5003;58358;50.936;0.246;2023-04-24T03:19:34;50;42;
64631;PMS5003;58358;50.936;0.246;2023-04-24T03:21:59;54;49;
64631;PMS5003;58358;50.936;0.246;2023-04-24T03:24:24;43;41;
64631;PMS5003;58358;50.936;0.246;2023-04-24T03:26:49;49;42;
64631;PMS5003;58358;50.936;0.246;2023-04-24T03:29:14;45;42;
64631;PMS5003;58358;50.936;0.246;2023-04-24T03:31:40;48;38;
64631;PMS5003;58358;50.936;0.246;2023-04-24T03:34:05;45;43;
64631;PMS5003;58358;50.936;0.246;2023-04-24T03:36:30;49;42;
64631;PMS5003;58358;50.936;0.246;2023-04-24T03:38:56;49;42;
64631;PMS5003;58358;50.936;0.246;2023-04-24T03:41:21;44;42;
64631;PMS5003;58358;50.936;0.246;2023-04-24T03:43:47;51;47;
64631;PMS5003;58358;50.936;0.246;2023-04-24T03:46:12;45;42;
64631;PMS5003;58358;50.936;0.246;2023-04-24T03:48:38;40;34;
64631;PMS5003;58358;50.936;0.246;2023-04-24T03:51:04;54;50;
64631;PMS5003;58358;50.936;0.246;2023-04-24T03:53:29;49;43;
64631;PMS5003;58358;50.936;0.246;2023-04-24T03:55:54;51;47;
64631;PMS5003;58358;50.936;0.246;2023-04-24T03:58:19;57;47;
64631;PMS5003;58358;50.936;0.246;2023-04-24T04:00:45;48;40;
64631;PMS5003;58358;50.936;0.246;2023-04-24T04:03:10;43;42;
64631;PMS5003;58358;50.936;0.246;2023-04-24T04:05:36;54;47;
64631;PMS5003;58358;50.936;0.246;2023-04-24T04:08:02;53;43;
64631;PMS5003;58358;50.936;0.246;2023-04-24T04:10:27;51;41;
64631;PMS5003;58358;50.936;0.246;2023-04-24T04:12:53;52;47;
64631;PMS5003;58358;50.936;0.246;2023-04-24T04:15:19;46;40;
64631;PMS5003;58358;50.936;0.246;2023-04-24T04:17:45;50;48;
64631;PMS5003;58358;50.936;0.246;2023-04-24T04:20:10;48;44;
64631;PMS5003;58358;50.936;0.246;2023-04-24T04:22:36;49;44;
64631;PMS5003;58358;50.936;0.246;2023-04-24T04:25:01;48;45;
64631;PMS5003;58358;50.936;0.246;2023-04-24T04:27:26;49;47;
64631;PMS5003;58358;50.936;0.246;2023-04-24T04:29:52;45;42;
64631;PMS5003;58358;50.936;0.246;2023-04-24T04:32:18;43;41;
64631;PMS5003;58358;50.936;0.246;2023-04-24T04:34:43;48;44;
64631;PMS5003;58358;50.936;0.246;2023-04-24T04:37:09;46;43;
64631;PMS5003;58358;50.936;0.246;2023-04-24T04:39:35;47;42;
64631;PMS5003;58358;50.936;0.246;2023-04-24T04:42:00;49;44;
64631;PMS5003;58358;50.936;0.246;2023-04-24T04:44:26;44;41;
64631;PMS5003;58358;50.936;0.246;2023-04-24T04:46:51;47;43;
64631;PMS5003;58358;50.936;0.246;2023-04-24T04:49:16;52;45;
64631;PMS5003;58358;50.936;0.246;2023-04-24T04:51:42;47;43;
64631;PMS5003;58358;50.936;0.246;2023-04-24T04:54:07;45;41;
64631;PMS5003;58358;50.936;0.246;2023-04-24T04:56:32;42;41;
64631;PMS5003;58358;50.936;0.246;2023-04-24T04:58:58;47;46;
64631;PMS5003;58358;50.936;0.246;2023-04-24T05:01:24;61;46;
64631;PMS5003;58358;50.936;0.246;2023-04-24T05:03:49;54;49;
64631;PMS5003;58358;50.936;0.246;2023-04-24T05:06:15;50;45;
64631;PMS5003;58358;50.936;0.246;2023-04-24T05:08:40;44;38;
64631;PMS5003;58358;50.936;0.246;2023-04-24T05:11:05;49;45;
64631;PMS5003;58358;50.936;0.246;2023-04-24T05:13:31;53;50;
64631;PMS5003;58358;50.936;0.246;2023-04-24T05:15:57;45;44;
64631;PMS5003;58358;50.936;0.246;2023-04-24T05:18:22;51;50;
64631;PMS5003;58358;50.936;0.246;2023-04-24T05:20:47;52;50;
64631;PMS5003;58358;50.936;0.246;2023-04-24T05:23:13;54;51;
64631;PMS5003;58358;50.936;0.246;2023-04-24T05:25:38;53;47;
64631;PMS5003;58358;50.936;0.246;2023-04-24T05:28:04;56;48;
64631;PMS5003;58358;50.936;0.246;2023-04-24T05:30:30;44;41;
64631;PMS5003;58358;50.936;0.246;2023-04-24T05:32:55;51;45;
64631;PMS5003;58358;50.936;0.246;2023-04-24T05:35:21;46;40;
64631;PMS5003;58358;50.936;0.246;2023-04-24T05:37:46;46;46;
64631;PMS5003;58358;50.936;0.246;2023-04-24T05:40:12;40;36;
64631;PMS5003;58358;50.936;0.246;2023-04-24T05:42:37;43;41;
64631;PMS5003;58358;50.936;0.246;2023-04-24T05:45:03;50;45;
64631;PMS5003;58358;50.936;0.246;2023-04-24T05:47:28;50;44;
64631;PMS5003;58358;50.936;0.246;2023-04-24T05:49:54;48;45;
64631;PMS5003;58358;50.936;0.246;2023-04-24T05:52:19;52;49;
64631;PMS5003;58358;50.936;0.246;2023-04-24T05:54:45;40;36;
64631;PMS5003;58358;50.936;0.246;2023-04-24T05:57:11;49;42;
64631;PMS5003;58358;50.936;0.246;2023-04-24T05:59:37;49;43;
64631;PMS5003;58358;50.936;0.246;2023-04-24T06:02:02;43;39;
64631;PMS5003;58358;50.936;0.246;2023-04-24T06:04:28;46;41;
64631;PMS5003;58358;50.936;0.246;2023-04-24T06:06:53;44;40;
64631;PMS5003;58358;50.936;0.246;2023-04-24T06:09:19;49;46;
64631;PMS5003;58358;50.936;0.246;2023-04-24T06:11:44;52;44;
64631;PMS5003;58358;50.936;0.246;2023-04-24T06:14:10;53;42;
64631;PMS5003;58358;50.936;0.246;2023-04-24T06:16:35;51;44;
64631;PMS5003;58358;50.936;0.246;2023-04-24T06:19:01;43;41;
64631;PMS5003;58358;50.936;0.246;2023-04-24T06:21:26;52;50;
64631;PMS5003;58358;50.936;0.246;2023-04-24T06:23:52;45;44;
64631;PMS5003;58358;50.936;0.246;2023-04-24T06:26:17;48;44;
64631;PMS5003;58358;50.936;0.246;2023-04-24T06:28:43;42;41;
64631;PMS5003;58358;50.936;0.246;2023-04-24T06:31:08;50;44;
64631;PMS5003;58358;50.936;0.246;2023-04-24T06:33:33;44;42;
64631;PMS5003;58358;50.936;0.246;2023-04-24T06:35:59;42;41;
64631;PMS5003;58358;50.936;0.246;2023-04-24T06:38:24;51;46;
64631;PMS5003;58358;50.936;0.246;2023-04-24T06:40:50;47;42;
64631;PMS5003;58358;50.936;0.246;2023-04-24T06:43:15;43;42;
64631;PMS5003;58358;50.936;0.246;2023-04-24T06:45:41;52;50;
64631;PMS5003;58358;50.936;0.246;2023-04-24T06:48:06;45;42;
64631;PMS5003;58358;50.936;0.246;2023-04-24T06:50:32;47;42;
64631;PMS5003;58358;50.936;0.246;2023-04-24T06:52:58;45;43;
64631;PMS5003;58358;50.936;0.246;2023-04-24T06:55:23;42;40;
64631;PMS5003;58358;50.936;0.246;2023-04-24T06:57:48;49;48;
64631;PMS5003;58358;50.936;0.246;2023-04-24T07:00:14;47;43;
64631;PMS5003;58358;50.936;0.246;2023-04-24T07:02:40;45;37;
64631;PMS5003;58358;50.936;0.246;2023-04-24T07:05:05;51;48;
64631;PMS5003;58358;50.936;0.246;2023-04-24T07:07:31;47;41;
64631;PMS5003;58358;50.936;0.246;2023-04-24T07:09:57;39;36;
64631;PMS5003;58358;50.936;0.246;2023-04-24T07:12:22;47;43;
64631;PMS5003;58358;50.936;0.246;2023-04-24T07:14:47;43;40;
64631;PMS5003;58358;50.936;0.246;2023-04-24T07:17:13;42;39;
64631;PMS5003;58358;50.936;0.246;2023-04-24T07:19:38;45;42;
64631;PMS5003;58358;50.936;0.246;2023-04-24T07:22:04;41;40;
64631;PMS5003;58358;50.936;0.246;2023-04-24T07:24:29;47;41;
64631;PMS5003;58358;50.936;0.246;2023-04-24T07:26:54;42;34;
64631;PMS5003;58358;50.936;0.246;2023-04-24T07:29:19;41;41;
64631;PMS5003;58358;50.936;0.246;2023-04-24T07:31:45;43;41;
64631;PMS5003;58358;50.936;0.246;2023-04-24T07:34:10;41;39;
64631;PMS5003;58358;50.936;0.246;2023-04-24T07:36:35;38;37;
64631;PMS5003;58358;50.936;0.246;2023-04-24T07:39:01;35;35;
64631;PMS5003;58358;50.936;0.246;2023-04-24T07:41:26;34;32;
64631;PMS5003;58358;50.936;0.246;2023-04-24T07:43:52;34;34;
64631;PMS5003;58358;50.936;0.246;2023-04-24T07:46:18;36;33;
64631;PMS5003;58358;50.936;0.246;2023-04-24T07:48:43;37;36;
64631;PMS5003;58358;50.936;0.246;2023-04-24T07:51:08;41;38;
64631;PMS5003;58358;50.936;0.246;2023-04-24T07:53:34;36;33;
64631;PMS5003;58358;50.936;0.246;2023-04-24T07:55:59;30;29;
64631;PMS5003;58358;50.936;0.246;2023-04-24T07:58:24;37;36;
64631;PMS5003;58358;50.936;0.246;2023-04-24T08:00:50;32;31;
64631;PMS5003;58358;50.936;0.246;2023-04-24T08:03:14;35;35;
64631;PMS5003;58358;50.936;0.246;2023-04-24T08:05:40;38;34;
64631;PMS5003;58358;50.936;0.246;2023-04-24T08:08:05;33;29;
64631;PMS5003;58358;50.936;0.246;2023-04-24T08:10:31;39;35;
64631;PMS5003;58358;50.936;0.246;2023-04-24T08:12:57;31;28;
64631;PMS5003;58358;50.936;0.246;2023-04-24T08:15:22;31;28;
64631;PMS5003;58358;50.936;0.246;2023-04-24T08:17:53;33;28;
64631;PMS5003;58358;50.936;0.246;2023-04-24T08:20:14;31;27;
64631;PMS5003;58358;50.936;0.246;2023-04-24T08:22:39;32;28;
64631;PMS5003;58358;50.936;0.246;2023-04-24T08:25:05;25;24;
64631;PMS5003;58358;50.936;0.246;2023-04-24T08:27:30;32;29;
64631;PMS5003;58358;50.936;0.246;2023-04-24T08:29:56;29;25;
64631;PMS5003;58358;50.936;0.246;2023-04-24T08:32:21;32;31;
64631;PMS5003;58358;50.936;0.246;2023-04-24T08:34:47;29;29;
64631;PMS5003;58358;50.936;0.246;2023-04-24T08:37:12;35;35;
64631;PMS5003;58358;50.936;0.246;2023-04-24T08:39:38;30;29;
64631;PMS5003;58358;50.936;0.246;2023-04-24T08:42:03;34;33;
64631;PMS5003;58358;50.936;0.246;2023-04-24T08:44:28;33;29;
64631;PMS5003;58358;50.936;0.246;2023-04-24T08:46:53;39;35;
64631;PMS5003;58358;50.936;0.246;2023-04-24T08:49:19;28;27;
64631;PMS5003;58358;50.936;0.246;2023-04-24T08:51:45;34;31;
64631;PMS5003;58358;50.936;0.246;2023-04-24T08:54:11;26;26;
64631;PMS5003;58358;50.936;0.246;2023-04-24T08:56:36;33;32;
64631;PMS5003;58358;50.936;0.246;2023-04-24T08:59:01;36;32;
64631;PMS5003;58358;50.936;0.246;2023-04-24T09:01:26;33;31;
64631;PMS5003;58358;50.936;0.246;2023-04-24T09:03:52;31;30;
64631;PMS5003;58358;50.936;0.246;2023-04-24T09:06:17;30;29;
64631;PMS5003;58358;50.936;0.246;2023-04-24T09:08:43;37;35;
64631;PMS5003;58358;50.936;0.246;2023-04-24T09:11:09;33;31;
64631;PMS5003;58358;50.936;0.246;2023-04-24T09:13:34;35;31;
64631;PMS5003;58358;50.936;0.246;2023-04-24T09:16:00;37;31;
64631;PMS5003;58358;50.936;0.246;2023-04-24T09:18:25;33;27;
64631;PMS5003;58358;50.936;0.246;2023-04-24T09:20:57;31;30;
64631;PMS5003;58358;50.936;0.246;2023-04-24T09:23:17;28;27;
64631;PMS5003;58358;50.936;0.246;2023-04-24T09:25:42;31;30;
64631;PMS5003;58358;50.936;0.246;2023-04-24T09:28:08;30;28;
64631;PMS5003;58358;50.936;0.246;2023-04-24T09:30:34;32;29;
64631;PMS5003;58358;50.936;0.246;2023-04-24T09:35:24;32;31;
64631;PMS5003;58358;50.936;0.246;2023-04-24T09:37:50;34;33;
64631;PMS5003;58358;50.936;0.246;2023-04-24T09:40:16;30;30;
64631;PMS5003;58358;50.936;0.246;2023-04-24T09:42:43;30;28;
64631;PMS5003;58358;50.936;0.246;2023-04-24T09:45:08;30;28;
64631;PMS5003;58358;50.936;0.246;2023-04-24T09:47:35;30;28;
64631;PMS5003;58358;50.936;0.246;2023-04-24T09:49:57;28;25;
64631;PMS5003;58358;50.936;0.246;2023-04-24T09:52:22;28;27;
64631;PMS5003;58358;50.936;0.246;2023-04-24T09:54:52;26;26;
64631;PMS5003;58358;50.936;0.246;2023-04-24T09:57:14;26;24;
64631;PMS5003;58358;50.936;0.246;2023-04-24T09:59:42;32;29;
64631;PMS5003;58358;50.936;0.246;2023-04-24T10:02:04;31;30;
64631;PMS5003;58358;50.936;0.246;2023-04-24T10:04:29;28;25;
64631;PMS5003;58358;50.936;0.246;2023-04-24T10:06:55;29;28;
64631;PMS5003;58358;50.936;0.246;2023-04-24T10:09:21;28;26;
64631;PMS5003;58358;50.936;0.246;2023-04-24T10:11:46;26;24;
64631;PMS5003;58358;50.936;0.246;2023-04-24T10:14:12;27;25;
64631;PMS5003;58358;50.936;0.246;2023-04-24T10:16:37;25;25;
64631;PMS5003;58358;50.936;0.246;2023-04-24T10:19:03;24;22;
64631;PMS5003;58358;50.936;0.246;2023-04-24T10:21:28;27;26;
64631;PMS5003;58358;50.936;0.246;2023-04-24T10:23:53;24;23;
64631;PMS5003;58358;50.936;0.246;2023-04-24T10:26:19;23;22;
64631;PMS5003;58358;50.936;0.246;2023-04-24T10:28:45;23;23;
64631;PMS5003;58358;50.936;0.246;2023-04-24T10:31:10;25;25;
64631;PMS5003;58358;50.936;0.246;2023-04-24T10:33:36;24;24;
64631;PMS5003;58358;50.936;0.246;2023-04-24T10:36:01;21;21;
64631;PMS5003;58358;50.936;0.246;2023-04-24T10:38:26;27;25;
64631;PMS5003;58358;50.936;0.246;2023-04-24T10:43:18;23;23;
64631;PMS5003;58358;50.936;0.246;2023-04-24T10:48:09;19;18;
64631;PMS5003;58358;50.936;0.246;2023-04-24T10:50:43;24;24;
64631;PMS5003;58358;50.936;0.246;2023-04-24T11:00:18;39;39;
64631;PMS5003;58358;50.936;0.246;2023-04-24T11:02:41;36;31;
64631;PMS5003;58358;50.936;0.246;2023-04-24T11:05:07;41;41;
64631;PMS5003;58358;50.936;0.246;2023-04-24T11:09:58;36;35;
64631;PMS5003;58358;50.936;0.246;2023-04-24T11:12:23;29;29;
64631;PMS5003;58358;50.936;0.246;2023-04-24T11:19:40;35;32;
64631;PMS5003;58358;50.936;0.246;2023-04-24T11:22:06;35;31;
64631;PMS5003;58358;50.936;0.246;2023-04-24T11:24:31;30;30;
64631;PMS5003;58358;50.936;0.246;2023-04-24T11:26:56;36;33;
64631;PMS5003;58358;50.936;0.246;2023-04-24T11:29:21;33;31;
64631;PMS5003;58358;50.936;0.246;2023-04-24T11:31:46;28;26;
64631;PMS5003;58358;50.936;0.246;2023-04-24T11:34:12;30;30;
64631;PMS5003;58358;50.936;0.246;2023-04-24T11:36:37;34;32;
64631;PMS5003;58358;50.936;0.246;2023-04-24T11:39:03;30;30;
64631;PMS5003;58358;50.936;0.246;2023-04-24T11:41:28;32;31;
64631;PMS5003;58358;50.936;0.246;2023-04-24T11:43:54;28;26;
64631;PMS5003;58358;50.936;0.246;2023-04-24T11:46:20;31;28;
64631;PMS5003;58358;50.936;0.246;2023-04-24T11:48:45;25;22;
64631;PMS5003;58358;50.936;0.246;2023-04-24T11:51:11;26;23;
64631;PMS5003;58358;50.936;0.246;2023-04-24T11:53:36;23;20;
64631;PMS5003;58358;50.936;0.246;2023-04-24T11:56:02;23;22;
64631;PMS5003;58358;50.936;0.246;2023-04-24T11:58:27;25;23;
64631;PMS5003;58358;50.936;0.246;2023-04-24T12:00:56;21;21;
64631;PMS5003;58358;50.936;0.246;2023-04-24T12:03:19;25;22;
64631;PMS5003;58358;50.936;0.246;2023-04-24T12:05:45;23;22;
64631;PMS5003;58358;50.936;0.246;2023-04-24T12:08:10;20;19;
64631;PMS5003;58358;50.936;0.246;2023-04-24T12:10:35;24;20;
64631;PMS5003;58358;50.936;0.246;2023-04-24T12:13:01;23;23;
64631;PMS5003;58358;50.936;0.246;2023-04-24T12:15:26;21;21;
64631;PMS5003;58358;50.936;0.246;2023-04-24T12:17:52;24;23;
64631;PMS5003;58358;50.936;0.246;2023-04-24T12:20:16;25;24;
64631;PMS5003;58358;50.936;0.246;2023-04-24T12:22:43;20;20;
64631;PMS5003;58358;50.936;0.246;2023-04-24T12:25:09;26;25;
64631;PMS5003;58358;50.936;0.246;2023-04-24T12:27:32;26;24;
64631;PMS5003;58358;50.936;0.246;2023-04-24T12:29:58;26;26;
64631;PMS5003;58358;50.936;0.246;2023-04-24T12:32:24;22;21;
64631;PMS5003;58358;50.936;0.246;2023-04-24T12:34:49;28;26;
64631;PMS5003;58358;50.936;0.246;2023-04-24T12:37:15;23;23;
64631;PMS5003;58358;50.936;0.246;2023-04-24T12:39:44;20;20;
64631;PMS5003;58358;50.936;0.246;2023-04-24T12:42:06;21;21;
64631;PMS5003;58358;50.936;0.246;2023-04-24T12:44:32;24;20;
64631;PMS5003;58358;50.936;0.246;2023-04-24T12:46:58;25;23;
64631;PMS5003;58358;50.936;0.246;2023-04-24T12:49:24;21;20;
64631;PMS5003;58358;50.936;0.246;2023-04-24T12:51:49;20;18;
64631;PMS5003;58358;50.936;0.246;2023-04-24T12:54:15;19;19;
64631;PMS5003;58358;50.936;0.246;2023-04-24T12:56:40;22;22;
64631;PMS5003;58358;50.936;0.246;2023-04-24T12:59:05;23;23;
64631;PMS5003;58358;50.936;0.246;2023-04-24T13:01:31;24;20;
64631;PMS5003;58358;50.936;0.246;2023-04-24T13:03:56;23;21;
64631;PMS5003;58358;50.936;0.246;2023-04-24T13:06:21;19;18;
64631;PMS5003;58358;50.936;0.246;2023-04-24T13:08:47;20;20;
64631;PMS5003;58358;50.936;0.246;2023-04-24T13:11:12;23;21;
64631;PMS5003;58358;50.936;0.246;2023-04-24T13:13:38;23;22;
64631;PMS5003;58358;50.936;0.246;2023-04-24T13:16:03;22;21;
64631;PMS5003;58358;50.936;0.246;2023-04-24T13:18:29;20;19;
64631;PMS5003;58358;50.936;0.246;2023-04-24T13:20:54;25;21;
64631;PMS5003;58358;50.936;0.246;2023-04-24T13:23:19;25;24;
64631;PMS5003;58358;50.936;0.246;2023-04-24T13:25:44;22;20;
64631;PMS5003;58358;50.936;0.246;2023-04-24T13:28:10;19;19;
64631;PMS5003;58358;50.936;0.246;2023-04-24T13:30:36;20;20;
64631;PMS5003;58358;50.936;0.246;2023-04-24T13:33:01;24;23;
64631;PMS5003;58358;50.936;0.246;2023-04-24T13:35:26;20;18;
64631;PMS5003;58358;50.936;0.246;2023-04-24T13:37:51;20;19;
64631;PMS5003;58358;50.936;0.246;2023-04-24T13:40:17;18;18;
64631;PMS5003;58358;50.936;0.246;2023-04-24T13:42:43;18;16;
64631;PMS5003;58358;50.936;0.246;2023-04-24T13:45:09;18;18;
64631;PMS5003;58358;50.936;0.246;2023-04-24T13:47:34;19;19;
64631;PMS5003;58358;50.936;0.246;2023-04-24T13:49:59;17;17;
64631;PMS5003;58358;50.936;0.246;2023-04-24T13:52:25;16;15;
64631;PMS5003;58358;50.936;0.246;2023-04-24T13:54:51;20;17;
64631;PMS5003;58358;50.936;0.246;2023-04-24T13:57:16;15;15;
64631;PMS5003;58358;50.936;0.246;2023-04-24T13:59:41;15;15;
64631;PMS5003;58358;50.936;0.246;2023-04-24T14:02:06;21;21;
64631;PMS5003;58358;50.936;0.246;2023-04-24T14:04:32;16;16;
64631;PMS5003;58358;50.936;0.246;2023-04-24T14:06:58;16;15;
64631;PMS5003;58358;50.936;0.246;2023-04-24T14:09:24;17;17;
64631;PMS5003;58358;50.936;0.246;2023-04-24T14:11:49;17;16;
64631;PMS5003;58358;50.936;0.246;2023-04-24T14:14:15;18;18;
64631;PMS5003;58358;50.936;0.246;2023-04-24T14:16:41;16;14;
64631;PMS5003;58358;50.936;0.246;2023-04-24T14:19:07;18;18;
64631;PMS5003;58358;50.936;0.246;2023-04-24T14:21:33;18;18;
64631;PMS5003;58358;50.936;0.246;2023-04-24T14:23:58;14;14;
64631;PMS5003;58358;50.936;0.246;2023-04-24T14:26:23;23;20;
64631;PMS5003;58358;50.936;0.246;2023-04-24T14:28:49;20;18;
64631;PMS5003;58358;50.936;0.246;2023-04-24T14:31:14;23;22;
64631;PMS5003;58358;50.936;0.246;2023-04-24T14:33:40;14;13;
64631;PMS5003;58358;50.936;0.246;2023-04-24T14:36:05;15;14;
64631;PMS5003;58358;50.936;0.246;2023-04-24T14:38:31;16;15;
64631;PMS5003;58358;50.936;0.246;2023-04-24T14:40:56;14;14;
64631;PMS5003;58358;50.936;0.246;2023-04-24T14:43:22;15;15;
64631;PMS5003;58358;50.936;0.246;2023-04-24T14:45:47;13;12;
64631;PMS5003;58358;50.936;0.246;2023-04-24T14:48:13;13;12;
64631;PMS5003;58358;50.936;0.246;2023-04-24T14:50:39;16;14;
64631;PMS5003;58358;50.936;0.246;2023-04-24T14:53:04;14;12;
64631;PMS5003;58358;50.936;0.246;2023-04-24T14:55:30;13;11;
64631;PMS5003;58358;50.936;0.246;2023-04-24T14:57:55;14;14;
64631;PMS5003;58358;50.936;0.246;2023-04-24T15:00:21;13;13;
64631;PMS5003;58358;50.936;0.246;2023-04-24T15:02:46;14;14;
64631;PMS5003;58358;50.936;0.246;2023-04-24T15:05:12;13;12;
64631;PMS5003;58358;50.936;0.246;2023-04-24T15:07:37;14;14;
64631;PMS5003;58358;50.936;0.246;2023-04-24T15:10:03;14;14;
64631;PMS5003;58358;50.936;0.246;2023-04-24T15:12:28;11;11;
64631;PMS5003;58358;50.936;0.246;2023-04-24T15:14:54;9;9;
64631;PMS5003;58358;50.936;0.246;2023-04-24T15:17:19;10;10;
64631;PMS5003;58358;50.936;0.246;2023-04-24T15:19:45;11;9;
64631;PMS5003;58358;50.936;0.246;2023-04-24T15:22:11;11;11;
64631;PMS5003;58358;50.936;0.246;2023-04-24T15:24:36;11;10;
64631;PMS5003;58358;50.936;0.246;2023-04-24T15:27:02;10;9;
64631;PMS5003;58358;50.936;0.246;2023-04-24T15:29:27;12;10;
64631;PMS5003;58358;50.936;0.246;2023-04-24T15:31:53;12;12;
64631;PMS5003;58358;50.936;0.246;2023-04-24T15:34:19;11;8;
64631;PMS5003;58358;50.936;0.246;2023-04-24T15:36:44;8;8;
64631;PMS5003;58358;50.936;0.246;2023-04-24T15:39:10;10;10;
64631;PMS5003;58358;50.936;0.246;2023-04-24T15:41:35;7;7;
64631;PMS5003;58358;50.936;0.246;2023-04-24T15:44:01;13;11;
64631;PMS5003;58358;50.936;0.246;2023-04-24T15:46:26;8;8;
64631;PMS5003;58358;50.936;0.246;2023-04-24T15:48:52;12;12;
64631;PMS5003;58358;50.936;0.246;2023-04-24T15:51:18;9;9;
64631;PMS5003;58358;50.936;0.246;2023-04-24T15:53:43;12;11;
64631;PMS5003;58358;50.936;0.246;2023-04-24T15:56:08;10;10;
64631;PMS5003;58358;50.936;0.246;2023-04-24T15:58:34;8;8;
64631;PMS5003;58358;50.936;0.246;2023-04-24T16:00:59;10;10;
64631;PMS5003;58358;50.936;0.246;2023-04-24T16:03:25;9;9;
64631;PMS5003;58358;50.936;0.246;2023-04-24T16:05:51;10;9;
64631;PMS5003;58358;50.936;0.246;2023-04-24T16:08:16;13;11;
64631;PMS5003;58358;50.936;0.246;2023-04-24T16:10:42;10;10;
64631;PMS5003;58358;50.936;0.246;2023-04-24T16:13:07;9;9;
64631;PMS5003;58358;50.936;0.246;2023-04-24T16:15:33;10;10;
64631;PMS5003;58358;50.936;0.246;2023-04-24T16:17:59;11;11;
64631;PMS5003;58358;50.936;0.246;2023-04-24T16:20:25;11;10;
64631;PMS5003;58358;50.936;0.246;2023-04-24T16:22:50;14;11;
64631;PMS5003;58358;50.936;0.246;2023-04-24T16:25:15;12;12;
64631;PMS5003;58358;50.936;0.246;2023-04-24T16:27:41;10;10;